New Richmond Regional Airport New Richmond US
ICAO: KRNH
IATA: RNH
Category: Medium
Scheduled Services: No

Elevation: 998 ft
TransAlt. 18000 ft.

Airport Communications:
MINNEAPOLIS APP/DEP:121.2
AWOS 3:120
CTAF/UNICOM:122.975

KRNH Zoom In..

If you have problems with the map follow the link
https://www.worldairports.se/pages/airport.php?
ICAO=KRNH

Runways:

(A) RW 04 length 2050 ft width 75 ft
---- / hdg 42

(B) RW 14 length 5507 ft width 75 ft
---- / hdg 141

(C) RW 22 length 2050 ft width 75 ft
---- / hdg 222

(D) RW 32 length 5507 ft width 75 ft
---- / hdg 321

Location; KRNH
Day. 19 / Time. 13.55 Zulu
* Altimeter: 30.04
* Temperature: -06° c. -21.2°f.
* Wind from: 360° Speed 05 kn.
Dewpoint: -08° c.
Visibility: 10 Statute Miles.
Clouds: Overcast 8000 ft.

KRNH 191355Z AUTO 36005KT 10SM OVC080 M06/M08 A3004 RMK AO2 T10621081


Wind From 360°
Speed 05 kn.

 
 
jpsmedia.com for Web Design worldairports.se 2018   terms of use